createdAt,value
2022-07-25T00:01:14.827Z,22.6
2022-07-25T00:06:41.164Z,22.6
2022-07-25T00:11:27.919Z,22.5
2022-07-25T00:16:54.365Z,22.4
2022-07-25T00:22:56.963Z,22.3
2022-07-25T00:26:47.209Z,22.3
2022-07-25T00:36:59.997Z,22.1
2022-07-25T00:42:26.436Z,22.1
2022-07-25T00:47:12.775Z,22.0
2022-07-25T00:55:07.513Z,21.9
2022-07-25T00:57:25.577Z,21.9
2022-07-25T01:02:32.032Z,21.8
2022-07-25T01:07:38.386Z,21.7
2022-07-25T01:12:44.762Z,21.6
2022-07-25T01:18:11.234Z,21.6
2022-07-25T01:26:05.967Z,21.5
2022-07-25T01:28:03.986Z,21.4
2022-07-25T01:33:34.419Z,21.3
2022-07-25T01:38:16.768Z,21.3
2022-07-25T01:44:35.321Z,21.2
2022-07-25T01:53:39.534Z,21.1
2022-07-25T01:58:45.960Z,21.0
2022-07-25T02:04:36.544Z,20.9
2022-07-25T02:08:59.887Z,20.9
2022-07-25T02:14:30.297Z,20.8
2022-07-25T02:19:12.639Z,20.8
2022-07-25T02:24:19.010Z,20.7
2022-07-25T02:29:45.446Z,20.6
2022-07-25T02:34:31.886Z,20.6
2022-07-25T02:39:38.299Z,20.5
2022-07-25T02:44:44.750Z,20.4
2022-07-25T02:50:15.493Z,20.4
2022-07-25T02:54:57.868Z,20.3
2022-07-25T03:00:04.221Z,20.2
2022-07-25T03:05:30.639Z,20.2
2022-07-25T03:10:41.025Z,20.1
2022-07-25T03:15:47.579Z,20.0
2022-07-25T03:20:49.964Z,20.0
2022-07-25T03:26:48.449Z,19.9
2022-07-25T03:30:42.720Z,19.9
2022-07-25T03:35:49.090Z,19.8
2022-07-25T03:40:55.481Z,19.8
2022-07-25T03:46:26.034Z,19.7
2022-07-25T03:51:08.266Z,19.6
2022-07-25T03:56:14.650Z,19.6
2022-07-25T04:02:33.293Z,19.6
2022-07-25T04:06:27.437Z,19.5
2022-07-25T04:11:33.813Z,19.5
2022-07-25T04:16:40.232Z,19.4
2022-07-25T04:21:46.585Z,19.4
2022-07-25T04:26:53.023Z,19.4
2022-07-25T04:31:59.437Z,19.4
2022-07-25T04:37:05.766Z,19.4
2022-07-25T04:42:12.155Z,19.4
2022-07-25T04:47:18.536Z,19.4
2022-07-25T04:52:24.919Z,19.4
2022-07-25T04:57:31.312Z,19.4
2022-07-25T05:03:21.758Z,19.5
2022-07-25T05:07:44.050Z,19.5
2022-07-25T05:12:50.416Z,19.6
2022-07-25T05:17:46.799Z,19.6
2022-07-25T05:23:03.258Z,19.7
2022-07-25T05:27:59.736Z,19.8
2022-07-25T05:33:16.142Z,19.9
2022-07-25T05:38:36.560Z,20.0
2022-07-25T05:43:48.968Z,20.2
2022-07-25T05:48:49.413Z,20.3
2022-07-25T06:04:14.484Z,20.9
2022-07-25T06:09:24.868Z,21.1
2022-07-25T06:14:07.514Z,21.3
2022-07-25T06:19:13.634Z,21.6
2022-07-25T06:24:20.008Z,21.9
2022-07-25T06:34:32.839Z,22.3
2022-07-25T06:39:29.153Z,22.6
2022-07-25T06:44:45.731Z,22.8
2022-07-25T06:49:42.073Z,23.1
2022-07-25T06:54:57.469Z,23.3
2022-07-25T06:59:54.828Z,23.6
2022-07-25T07:12:23.042Z,24.5
2022-07-25T07:25:36.921Z,25.3
2022-07-25T07:31:19.334Z,25.7
2022-07-25T07:35:57.282Z,25.7
2022-07-25T07:41:24.612Z,25.9
2022-07-25T07:46:11.025Z,26.2
2022-07-25T07:51:21.350Z,26.4
2022-07-25T07:57:24.420Z,26.5
2022-07-25T08:08:22.285Z,26.7
2022-07-25T08:12:20.537Z,27.8
2022-07-25T08:17:31.069Z,27.8
2022-07-25T08:23:16.719Z,28.5
2022-07-25T08:29:04.911Z,28.5
2022-07-25T08:33:30.573Z,28.7
2022-07-25T08:39:01.031Z,28.9
2022-07-25T08:43:43.355Z,29.0
2022-07-25T08:49:17.913Z,29.2
2022-07-25T09:04:12.594Z,30.2
2022-07-25T09:09:18.999Z,30.9
2022-07-25T09:14:29.398Z,31.6
2022-07-25T09:19:31.798Z,32.3
2022-07-25T09:25:22.265Z,32.9
2022-07-25T09:29:44.554Z,33.3
2022-07-25T09:34:51.003Z,33.5
2022-07-25T09:39:57.922Z,33.6
2022-07-25T09:45:31.553Z,33.6
2022-07-25T09:50:10.653Z,33.7
2022-07-25T09:55:37.082Z,33.7
2022-07-25T10:00:18.975Z,33.7
2022-07-25T10:05:29.819Z,34.0
2022-07-25T10:10:40.267Z,34.4
2022-07-25T10:15:42.627Z,35.0
2022-07-25T10:20:49.039Z,35.5
2022-07-25T10:25:55.479Z,35.8
2022-07-25T10:31:26.149Z,36.0
2022-07-25T10:36:10.001Z,36.2
2022-07-25T10:41:16.379Z,36.4
2022-07-25T10:46:22.849Z,36.6
2022-07-25T10:51:35.105Z,36.9
2022-07-25T11:06:51.504Z,38.0
2022-07-25T11:12:01.899Z,38.2
2022-07-25T11:18:16.408Z,38.5
2022-07-25T11:22:00.645Z,38.6
2022-07-25T11:27:17.053Z,38.7
2022-07-25T11:37:29.817Z,38.8
2022-07-25T11:42:50.234Z,38.8
2022-07-25T11:52:38.936Z,38.8
2022-07-25T11:58:39.425Z,38.8
2022-07-25T12:03:01.902Z,38.7
2022-07-25T12:08:08.088Z,38.7
2022-07-25T12:13:38.509Z,38.6
2022-07-25T12:18:20.843Z,38.6
2022-07-25T12:23:27.216Z,38.4
2022-07-25T12:33:29.961Z,37.9
2022-07-25T12:38:49.392Z,37.5
2022-07-25T12:43:52.792Z,37.2
2022-07-25T12:48:49.217Z,36.9
2022-07-25T12:54:08.928Z,36.5
2022-07-25T12:59:01.936Z,36.2
2022-07-25T13:04:08.317Z,35.9
2022-07-25T13:09:24.717Z,35.7
2022-07-25T13:14:31.112Z,35.5
2022-07-25T13:19:57.506Z,35.2
2022-07-25T13:24:33.925Z,35.1
2022-07-25T13:29:50.329Z,34.9
2022-07-25T13:35:20.439Z,34.8
2022-07-25T13:40:03.209Z,34.8
2022-07-25T13:44:59.579Z,34.7
2022-07-25T13:50:20.169Z,34.6
2022-07-25T13:55:13.097Z,34.4
2022-07-25T14:00:29.494Z,34.3
2022-07-25T14:05:35.879Z,34.2
2022-07-25T14:10:42.257Z,34.1
2022-07-25T14:15:52.648Z,33.9
2022-07-25T14:20:45.029Z,33.7
2022-07-25T14:26:05.434Z,33.4
2022-07-25T14:31:31.982Z,33.2
2022-07-25T14:36:04.212Z,32.9
2022-07-25T14:46:27.681Z,32.5
2022-07-25T14:51:58.067Z,32.2
2022-07-25T15:01:36.877Z,31.7
2022-07-25T15:17:06.558Z,29.1
2022-07-25T15:23:06.024Z,29.4
2022-07-25T15:27:20.350Z,29.3
2022-07-25T15:45:39.580Z,29.1
2022-07-25T15:50:45.974Z,29.0
2022-07-25T15:55:55.945Z,28.8
2022-07-25T16:01:22.470Z,28.8
2022-07-25T16:06:08.691Z,28.7
2022-07-25T16:11:15.087Z,28.6
2022-07-25T16:16:45.636Z,28.5
2022-07-25T16:21:47.941Z,28.4
2022-07-25T16:26:34.278Z,28.3
2022-07-25T16:31:54.767Z,28.2
2022-07-25T16:36:46.197Z,28.0
2022-07-25T16:41:53.558Z,27.9
2022-07-25T16:46:59.990Z,27.8
2022-07-25T16:52:06.331Z,27.8
2022-07-25T16:57:16.716Z,27.7
2022-07-25T17:02:19.479Z,27.6
2022-07-25T17:07:25.793Z,27.5
2022-07-25T17:12:22.255Z,27.3
2022-07-25T17:17:38.650Z,27.3
2022-07-25T17:23:19.132Z,27.2
2022-07-25T17:28:26.531Z,27.2
2022-07-25T17:33:36.935Z,27.2
2022-07-25T17:38:39.297Z,27.1
2022-07-25T17:43:49.701Z,27.1
2022-07-25T17:48:56.215Z,27.1
2022-07-25T17:54:00.044Z,27.1
2022-07-25T17:59:06.429Z,27.0
2022-07-25T18:04:12.885Z,26.9
2022-07-25T18:09:43.337Z,26.8
2022-07-25T18:14:25.696Z,26.7
2022-07-25T18:19:36.097Z,26.5
2022-07-25T18:24:42.446Z,26.4
2022-07-25T18:29:44.902Z,26.2
2022-07-25T18:34:51.409Z,26.2
2022-07-25T18:39:57.829Z,26.0
2022-07-25T18:49:59.601Z,25.8
2022-07-25T19:00:27.372Z,25.6
2022-07-25T19:05:29.777Z,25.5
2022-07-25T19:10:26.098Z,25.3
2022-07-25T19:15:42.559Z,25.1
2022-07-25T19:20:48.905Z,25.0
2022-07-25T19:25:59.311Z,24.8
2022-07-25T19:30:51.725Z,24.7
2022-07-25T19:46:23.961Z,24.3
2022-07-25T19:51:20.943Z,24.2
2022-07-25T19:56:36.365Z,24.0
2022-07-25T20:01:43.886Z,24.0
2022-07-25T20:06:50.181Z,23.8
2022-07-25T20:13:01.459Z,23.7
2022-07-25T20:17:03.056Z,23.6
2022-07-25T20:22:37.403Z,23.5
2022-07-25T20:27:15.741Z,23.4
2022-07-25T20:32:22.118Z,23.3
2022-07-25T20:37:30.072Z,23.2
2022-07-25T20:43:00.503Z,23.1
2022-07-25T20:47:42.841Z,23.0
2022-07-25T20:52:39.220Z,22.9
2022-07-25T20:57:58.632Z,22.8
2022-07-25T21:08:57.404Z,22.6
2022-07-25T21:13:44.758Z,22.6
2022-07-25T21:19:43.288Z,22.7
2022-07-25T21:23:57.547Z,22.5
2022-07-25T21:29:04.355Z,22.4
2022-07-25T21:34:11.980Z,22.3
2022-07-25T21:44:24.805Z,22.1
2022-07-25T21:49:40.805Z,22.0
2022-07-25T21:55:29.731Z,21.9
2022-07-25T21:59:44.004Z,21.8
2022-07-25T22:09:57.605Z,21.6
2022-07-25T22:20:16.248Z,21.6
2022-07-25T22:26:15.755Z,21.6
2022-07-25T22:31:46.307Z,21.6
2022-07-25T22:35:36.406Z,21.6
2022-07-25T22:40:42.796Z,21.5
2022-07-25T22:45:53.341Z,21.4
2022-07-25T22:50:59.723Z,21.2
2022-07-25T22:56:06.086Z,21.2
2022-07-25T23:01:12.480Z,21.1
2022-07-25T23:06:14.879Z,21.0
2022-07-25T23:11:21.235Z,20.9
2022-07-25T23:16:51.782Z,20.9
2022-07-25T23:24:26.352Z,20.8
2022-07-25T23:26:40.397Z,20.7
2022-07-25T23:31:46.844Z,20.6
2022-07-25T23:38:17.348Z,20.6
2022-07-25T23:47:05.131Z,20.4
2022-07-25T23:57:22.809Z,20.2
